Time;durP1;ratioP1;P1;durP2;ratioP2;P2;SDS_P1;SDS_P2;PMS_P1;PMS_P2;Temp;Humidity;BMP_temperature;BMP_pressure;BME280_temperature;BME280_humidity;BME280_pressure;Samples;Min_cycle;Max_cycle;Signal;HPM_P1;HPM_P2
2023/02/19 00:00:30;;;;;;;20.23;8.98;;;7.70;99.90;;;;;;5048172;28;20029;-42
2023/02/19 00:02:56;;;;;;;22.08;8.68;;;7.70;99.90;;;;;;5062937;28;20017;-41
2023/02/19 00:05:22;;;;;;;22.98;9.15;;;7.70;99.90;;;;;;5047981;28;20025;-42
2023/02/19 00:07:48;;;;;;;20.38;9.32;;;7.70;99.90;;;;;;5048336;28;20544;-41
2023/02/19 00:10:13;;;;;;;21.58;10.75;;;7.70;99.90;;;;;;5047854;28;20120;-41
2023/02/19 00:12:39;;;;;;;20.38;8.52;;;7.70;99.90;;;;;;5062760;28;20055;-42
2023/02/19 00:15:05;;;;;;;18.83;8.85;;;7.70;99.90;;;;;;5048141;28;20384;-42
2023/02/19 00:17:30;;;;;;;15.90;8.60;;;7.70;99.90;;;;;;5062967;28;20075;-42
2023/02/19 00:19:56;;;;;;;18.02;8.02;;;7.70;99.90;;;;;;5047956;28;20295;-41
2023/02/19 00:22:22;;;;;;;15.15;8.38;;;7.70;99.90;;;;;;5047301;28;20040;-41
2023/02/19 00:24:48;;;;;;;14.45;7.20;;;7.70;99.90;;;;;;5048100;28;20021;-43
2023/02/19 00:27:14;;;;;;;13.27;7.05;;;7.80;99.90;;;;;;5062084;28;20102;-42
2023/02/19 00:29:39;;;;;;;11.02;6.38;;;7.80;99.90;;;;;;5048326;28;20025;-42
2023/02/19 00:32:05;;;;;;;16.90;7.22;;;7.80;99.90;;;;;;5047472;28;20425;-42
2023/02/19 00:34:31;;;;;;;11.50;6.72;;;7.80;99.90;;;;;;5047446;28;20079;-42
2023/02/19 00:36:56;;;;;;;14.00;7.25;;;7.80;99.90;;;;;;5048142;28;20382;-42
2023/02/19 00:39:22;;;;;;;14.68;7.63;;;7.80;99.90;;;;;;5064950;28;20035;-43
2023/02/19 00:41:47;;;;;;;15.75;7.75;;;7.80;99.90;;;;;;5068204;28;20070;-41
2023/02/19 00:44:14;;;;;;;16.20;7.43;;;7.70;99.90;;;;;;5068482;28;20024;-41
2023/02/19 00:46:45;;;;;;;13.52;7.20;;;7.70;99.90;;;;;;5071613;28;20104;-42
2023/02/19 00:49:22;;;;;;;14.77;6.82;;;7.60;99.90;;;;;;5070712;28;20016;-43
2023/02/19 00:51:49;;;;;;;13.90;7.15;;;7.60;99.90;;;;;;5071964;28;20381;-42
2023/02/19 00:54:15;;;;;;;11.45;6.45;;;7.60;99.90;;;;;;5072043;28;20032;-40
2023/02/19 00:56:40;;;;;;;13.65;7.68;;;7.60;99.90;;;;;;5068890;28;20388;-41
2023/02/19 00:59:06;;;;;;;10.75;6.53;;;7.60;99.90;;;;;;5051650;28;20031;-41
2023/02/19 01:01:32;;;;;;;14.63;7.57;;;7.60;99.90;;;;;;5051403;28;20098;-42
2023/02/19 01:03:57;;;;;;;14.18;7.65;;;7.60;99.90;;;;;;5050151;28;20021;-42
2023/02/19 01:06:23;;;;;;;22.55;8.77;;;7.60;99.90;;;;;;5051939;28;20252;-41
2023/02/19 01:08:49;;;;;;;14.82;7.20;;;7.50;99.90;;;;;;5051784;28;20028;-41
2023/02/19 01:11:15;;;;;;;10.25;6.13;;;7.50;99.90;;;;;;5051751;28;20029;-41
2023/02/19 01:13:42;;;;;;;14.02;6.90;;;7.40;99.90;;;;;;5051255;28;20032;-43
2023/02/19 01:16:13;;;;;;;12.18;6.20;;;7.30;99.90;;;;;;5066747;28;20391;-43
2023/02/19 01:18:39;;;;;;;11.05;6.25;;;7.30;99.90;;;;;;5051499;28;20076;-43
2023/02/19 01:21:11;;;;;;;9.88;5.95;;;7.20;99.90;;;;;;5051416;28;20487;-42
2023/02/19 01:23:37;;;;;;;13.48;6.85;;;7.20;99.90;;;;;;5051315;28;20029;-42
2023/02/19 01:26:07;;;;;;;11.50;5.80;;;7.30;99.90;;;;;;5051660;28;20036;-43
2023/02/19 01:28:33;;;;;;;;;;;7.30;99.90;;;;;;5051509;28;20104;-43
2023/02/19 01:31:06;;;;;;;14.30;7.28;;;7.30;99.90;;;;;;5051020;28;19995;-43
2023/02/19 01:33:32;;;;;;;16.98;7.47;;;7.30;99.90;;;;;;5050773;28;20034;-42
2023/02/19 01:35:58;;;;;;;19.63;9.48;;;7.30;99.90;;;;;;5051389;28;20067;-42
2023/02/19 01:38:24;;;;;;;22.27;9.13;;;7.20;99.90;;;;;;5066581;28;20021;-45
2023/02/19 01:41:01;;;;;;;15.23;7.28;;;7.20;99.90;;;;;;5051114;28;20488;-41
2023/02/19 01:43:27;;;;;;;16.67;8.05;;;7.30;99.90;;;;;;5071793;28;20037;-42
2023/02/19 01:45:52;;;;;;;17.05;8.15;;;7.30;99.90;;;;;;5070991;28;20254;-42
2023/02/19 01:48:23;;;;;;;14.70;7.78;;;7.30;99.90;;;;;;5070757;28;20033;-42
2023/02/19 01:51:13;;;;;;;12.45;7.25;;;7.20;99.90;;;;;;5070912;28;20024;-42
2023/02/19 01:53:43;;;;;;;14.95;7.97;;;7.20;99.90;;;;;;5070543;28;20027;-42
2023/02/19 01:56:11;;;;;;;13.75;7.00;;;7.20;99.90;;;;;;5071496;28;20021;-41
2023/02/19 01:58:37;;;;;;;18.33;7.05;;;7.20;99.90;;;;;;5047591;28;20225;-41
2023/02/19 02:01:05;;;;;;;13.13;7.00;;;7.10;99.90;;;;;;5050537;28;20021;-42
2023/02/19 02:03:32;;;;;;;16.80;6.75;;;7.10;99.90;;;;;;5050256;28;20040;-42
2023/02/19 02:06:16;;;;;;;15.50;7.55;;;7.10;99.90;;;;;;5050587;28;20033;-41
2023/02/19 02:11:27;;;;;;;12.45;6.60;;;7.00;99.90;;;;;;5050546;28;20449;-41
2023/02/19 02:13:53;;;;;;;14.35;6.25;;;7.00;99.90;;;;;;5049251;28;20063;-43
2023/02/19 02:16:29;;;;;;;13.48;6.80;;;7.00;99.90;;;;;;5049091;28;20029;-42
2023/02/19 02:19:29;;;;;;;10.50;6.20;;;6.90;99.90;;;;;;5048714;28;20322;-42
2023/02/19 02:22:06;;;;;;;11.50;5.68;;;7.00;99.90;;;;;;5049876;28;20036;-43
2023/02/19 02:24:49;;;;;;;10.57;5.68;;;7.00;99.90;;;;;;5050253;28;20097;-41
2023/02/19 02:27:27;;;;;;;10.48;5.53;;;7.00;99.90;;;;;;5050179;28;20037;-42
2023/02/19 02:30:25;;;;;;;12.82;5.95;;;6.90;99.90;;;;;;5049829;28;20118;-41
2023/02/19 02:33:15;;;;;;;12.75;5.90;;;6.90;99.90;;;;;;5049413;28;20037;-41
2023/02/19 02:36:06;;;;;;;11.63;5.80;;;6.90;99.90;;;;;;5050243;28;20104;-42
2023/02/19 02:38:34;;;;;;;;;;;6.80;99.90;;;;;;5040778;28;20036;-41
2023/02/19 02:41:01;;;;;;;11.30;5.15;;;6.80;99.90;;;;;;5050214;28;19909;-41
2023/02/19 02:43:26;;;;;;;10.23;5.55;;;6.80;99.90;;;;;;5050005;28;20100;-42
2023/02/19 02:45:52;;;;;;;10.45;5.35;;;6.80;99.90;;;;;;5050744;28;20108;-41
2023/02/19 02:48:36;;;;;;;7.90;4.40;;;6.80;99.90;;;;;;5049971;28;20021;-45
2023/02/19 02:51:13;;;;;;;10.18;4.63;;;6.80;99.90;;;;;;5050195;28;20490;-42
2023/02/19 02:56:56;;;;;;;10.98;5.50;;;6.80;99.90;;;;;;5024116;28;20039;-41
2023/02/19 02:59:26;;;;;;;13.05;4.65;;;6.70;99.90;;;;;;5049704;28;20029;-40
2023/02/19 03:02:12;;;;;;;8.90;4.60;;;6.60;99.90;;;;;;5049341;28;20058;-40
2023/02/19 03:08:10;;;;;;;6.38;3.25;;;6.60;99.90;;;;;;5049756;28;20106;-41
2023/02/19 03:10:36;;;;;;;6.50;3.55;;;6.50;99.90;;;;;;5049764;28;20017;-40
2023/02/19 03:21:27;;;;;;;12.10;5.85;;;5.90;99.90;;;;;;5049346;28;20056;-40
2023/02/19 03:26:43;;;;;;;12.27;5.50;;;5.80;99.90;;;;;;5049433;28;20040;-42
2023/02/19 03:29:22;;;;;;;13.30;6.75;;;5.70;99.90;;;;;;5049231;28;20108;-41
2023/02/19 03:31:51;;;;;;;13.32;6.35;;;5.60;99.90;;;;;;5048623;28;20507;-42
2023/02/19 03:34:23;;;;;;;18.88;6.90;;;5.60;99.90;;;;;;5048697;28;20395;-42
2023/02/19 03:37:28;;;;;;;13.75;6.60;;;5.60;99.90;;;;;;5049111;28;20029;-42
2023/02/19 03:39:54;;;;;;;16.88;6.63;;;5.50;99.90;;;;;;5017282;28;20037;-42
2023/02/19 03:42:43;;;;;;;15.50;7.13;;;5.50;99.90;;;;;;5063422;28;20044;-42
2023/02/19 03:45:24;;;;;;;15.30;6.60;;;5.50;99.90;;;;;;5048863;28;20535;-42
2023/02/19 03:48:20;;;;;;;20.13;7.38;;;5.40;99.90;;;;;;5063888;28;20151;-42
2023/02/19 03:51:40;;;;;;;17.50;6.82;;;5.40;99.90;;;;;;5063998;28;20025;-42
2023/02/19 03:54:18;;;;;;;15.35;6.55;;;5.40;99.90;;;;;;4986837;28;20038;-39
2023/02/19 03:56:59;;;;;;;14.55;5.90;;;5.30;99.90;;;;;;5048919;28;20025;-40
2023/02/19 03:59:45;;;;;;;10.52;4.88;;;5.20;99.90;;;;;;5048731;28;20114;-40
2023/02/19 04:02:14;;;;;;;16.38;6.25;;;5.10;99.90;;;;;;5048157;28;20033;-40
2023/02/19 04:04:48;;;;;;;16.50;6.50;;;4.80;99.90;;;;;;5048553;28;20139;-40
2023/02/19 04:07:14;;;;;;;15.48;6.95;;;4.90;99.90;;;;;;5048615;28;20071;-40
2023/02/19 04:09:45;;;;;;;25.27;7.80;;;4.90;99.90;;;;;;5048472;28;20051;-40
2023/02/19 04:12:11;;;;;;;;;;;4.80;99.90;;;;;;5048448;28;20029;-40
2023/02/19 04:14:51;;;;;;;16.80;7.28;;;4.80;99.90;;;;;;5048465;28;19946;-40
2023/02/19 04:17:25;;;;;;;21.37;7.93;;;4.70;99.90;;;;;;5048931;28;20029;-40
2023/02/19 04:19:53;;;;;;;25.73;8.25;;;4.70;99.90;;;;;;5063227;28;20097;-41
2023/02/19 04:22:20;;;;;;;33.13;9.93;;;4.60;99.90;;;;;;5048144;28;20110;-41
2023/02/19 04:24:52;;;;;;;34.95;9.43;;;4.60;99.90;;;;;;5048550;28;20559;-40
2023/02/19 04:27:18;;;;;;;29.80;10.88;;;4.60;99.90;;;;;;5048685;28;20056;-41
2023/02/19 04:29:44;;;;;;;36.25;10.63;;;4.60;99.90;;;;;;5056921;28;20976;-41
2023/02/19 04:32:11;;;;;;;24.50;10.02;;;4.60;99.90;;;;;;5068027;28;20220;-41
2023/02/19 04:34:37;;;;;;;33.25;11.18;;;4.60;99.90;;;;;;5068411;28;20432;-41
2023/02/19 04:37:03;;;;;;;28.55;9.73;;;4.60;99.90;;;;;;5068469;28;20120;-41
2023/02/19 04:39:29;;;;;;;39.17;10.85;;;4.70;99.90;;;;;;5068233;28;20109;-41
2023/02/19 04:41:54;;;;;;;28.83;9.40;;;4.60;99.90;;;;;;5067616;28;20075;-41
2023/02/19 04:44:20;;;;;;;29.17;10.05;;;4.60;99.90;;;;;;5068327;28;20371;-41
2023/02/19 04:46:45;;;;;;;31.00;10.80;;;4.60;99.90;;;;;;5068165;28;20098;-44
2023/02/19 04:49:11;;;;;;;27.13;10.10;;;4.50;99.90;;;;;;5068243;28;20039;-40
2023/02/19 04:51:37;;;;;;;20.90;9.10;;;4.40;99.90;;;;;;5083645;28;20426;-42
2023/02/19 04:54:03;;;;;;;24.90;9.48;;;4.40;99.90;;;;;;5068195;28;20020;-41
2023/02/19 04:56:29;;;;;;;22.73;8.57;;;4.40;99.90;;;;;;5066528;28;20070;-42
2023/02/19 04:58:54;;;;;;;22.88;9.18;;;4.30;99.90;;;;;;5063253;28;20025;-41
2023/02/19 05:01:20;;;;;;;13.82;6.47;;;4.30;99.90;;;;;;5047920;28;20136;-41
2023/02/19 05:03:46;;;;;;;14.02;5.68;;;4.20;99.90;;;;;;5046199;28;20032;-42
2023/02/19 05:06:12;;;;;;;10.07;4.95;;;4.20;99.90;;;;;;5048265;28;20061;-41
2023/02/19 05:08:39;;;;;;;10.38;4.05;;;4.10;99.90;;;;;;5063358;28;20029;-41
2023/02/19 05:11:06;;;;;;;12.45;5.55;;;3.90;99.90;;;;;;5062909;28;20028;-40
2023/02/19 05:13:32;;;;;;;12.68;4.68;;;3.80;99.90;;;;;;5047648;28;20465;-40
2023/02/19 05:16:00;;;;;;;11.98;5.13;;;3.80;99.90;;;;;;5047951;28;20044;-40
2023/02/19 05:18:26;;;;;;;12.00;4.80;;;3.70;99.90;;;;;;5048010;28;20072;-41
2023/02/19 05:20:52;;;;;;;13.13;5.15;;;3.70;99.90;;;;;;5047682;28;20705;-40
2023/02/19 05:23:18;;;;;;;11.23;4.38;;;3.70;99.90;;;;;;5047455;28;20112;-41
2023/02/19 05:25:43;;;;;;;12.95;4.82;;;3.60;99.90;;;;;;5047968;28;20192;-42
2023/02/19 05:28:18;;;;;;;8.65;4.60;;;3.50;99.90;;;;;;5063569;28;20146;-41
2023/02/19 05:30:51;;;;;;;10.13;5.03;;;3.50;99.90;;;;;;5047843;28;20069;-41
2023/02/19 05:33:19;;;;;;;12.32;5.07;;;3.50;99.90;;;;;;5049152;28;20391;-41
2023/02/19 05:35:50;;;;;;;16.77;5.55;;;3.50;99.90;;;;;;5051584;28;20024;-41
2023/02/19 05:38:16;;;;;;;17.33;5.95;;;3.60;99.90;;;;;;5051003;28;20057;-41
2023/02/19 05:40:43;;;;;;;11.27;6.50;;;3.60;99.90;;;;;;5051313;28;20515;-41
2023/02/19 05:43:08;;;;;;;12.10;6.25;;;3.60;99.90;;;;;;5050640;28;20025;-42
2023/02/19 05:45:35;;;;;;;11.70;5.80;;;3.60;99.90;;;;;;5051182;28;20063;-42
2023/02/19 05:48:01;;;;;;;15.18;5.57;;;3.60;99.90;;;;;;5051120;28;20091;-41
2023/02/19 05:50:26;;;;;;;17.83;6.35;;;3.60;99.90;;;;;;5050690;28;20467;-41
2023/02/19 05:52:52;;;;;;;14.98;6.55;;;3.50;99.90;;;;;;5050440;28;20104;-41
2023/02/19 05:55:18;;;;;;;16.38;7.57;;;3.50;99.90;;;;;;5050696;28;20021;-41
2023/02/19 05:57:46;;;;;;;16.30;9.05;;;3.50;99.90;;;;;;5050344;28;20460;-41
2023/02/19 06:00:14;;;;;;;24.27;10.32;;;3.50;99.90;;;;;;5050547;28;20442;-41
2023/02/19 06:02:40;;;;;;;24.80;11.70;;;3.50;99.90;;;;;;5049753;28;20036;-41
2023/02/19 06:05:06;;;;;;;29.10;12.30;;;3.40;99.90;;;;;;5049867;28;20670;-41
2023/02/19 06:07:32;;;;;;;31.30;14.20;;;3.40;99.90;;;;;;5050339;28;20090;-41
2023/02/19 06:09:57;;;;;;;29.08;14.50;;;3.40;99.90;;;;;;5050715;28;20021;-41
2023/02/19 06:12:23;;;;;;;34.78;14.57;;;3.40;99.90;;;;;;5049871;28;20032;-41
2023/02/19 06:14:49;;;;;;;30.90;14.75;;;3.40;99.90;;;;;;5049998;28;20079;-42
2023/02/19 06:17:16;;;;;;;33.83;14.95;;;3.40;99.90;;;;;;5050055;28;20451;-41
2023/02/19 06:19:41;;;;;;;34.30;12.80;;;3.50;99.90;;;;;;5049524;28;20039;-41
2023/02/19 06:22:07;;;;;;;23.55;10.25;;;3.60;99.90;;;;;;5064806;28;20025;-42
2023/02/19 06:24:33;;;;;;;21.13;9.98;;;3.60;99.90;;;;;;5050138;28;20028;-41
2023/02/19 06:26:59;;;;;;;20.63;8.93;;;3.60;99.90;;;;;;5049504;28;20384;-41
2023/02/19 06:29:24;;;;;;;16.85;8.00;;;3.60;99.90;;;;;;5050326;28;20025;-41
2023/02/19 06:31:50;;;;;;;17.38;7.93;;;3.60;99.90;;;;;;5049816;28;20036;-41
2023/02/19 06:34:15;;;;;;;14.63;7.55;;;3.60;99.90;;;;;;5050100;28;20388;-42
2023/02/19 06:36:41;;;;;;;15.45;6.20;;;3.60;99.90;;;;;;5049881;28;20569;-42
2023/02/19 06:39:08;;;;;;;12.82;6.43;;;3.50;99.90;;;;;;5049041;28;20099;-42
2023/02/19 06:41:33;;;;;;;17.50;7.82;;;3.60;99.90;;;;;;5048329;28;20531;-42
2023/02/19 06:43:59;;;;;;;15.10;7.50;;;3.60;99.90;;;;;;5064060;28;20032;-41
2023/02/19 06:46:25;;;;;;;18.05;6.75;;;3.60;99.90;;;;;;5048559;28;20033;-41
2023/02/19 06:48:50;;;;;;;11.98;6.07;;;3.50;99.90;;;;;;5048556;28;20333;-41
2023/02/19 06:51:18;;;;;;;19.13;7.43;;;3.50;99.90;;;;;;5048507;28;20064;-41
2023/02/19 06:53:44;;;;;;;14.27;5.60;;;3.60;99.90;;;;;;5048225;28;21241;-42
2023/02/19 06:56:27;;;;;;;14.45;6.60;;;3.60;99.90;;;;;;5045612;28;20082;-41
2023/02/19 06:58:54;;;;;;;16.85;6.63;;;3.60;99.90;;;;;;5047742;28;20025;-41
2023/02/19 07:01:21;;;;;;;16.75;6.00;;;3.60;99.90;;;;;;5047168;28;20033;-42
2023/02/19 07:03:47;;;;;;;16.08;7.25;;;3.60;99.90;;;;;;5047233;28;20013;-42
2023/02/19 07:06:12;;;;;;;17.25;6.93;;;3.60;99.90;;;;;;5048214;28;20549;-41
2023/02/19 07:08:38;;;;;;;22.02;7.32;;;3.70;99.90;;;;;;5047905;28;20033;-41
2023/02/19 07:11:03;;;;;;;16.98;7.88;;;3.70;99.90;;;;;;5047671;28;20017;-42
2023/02/19 07:13:29;;;;;;;14.82;7.28;;;3.70;99.90;;;;;;5047439;28;20097;-43
2023/02/19 07:16:03;;;;;;;15.60;6.90;;;3.70;99.90;;;;;;5062947;28;20086;-41
2023/02/19 07:18:30;;;;;;;15.82;7.07;;;3.70;99.90;;;;;;5034343;28;20070;-42
2023/02/19 07:21:10;;;;;;;16.65;6.88;;;3.70;99.90;;;;;;5048396;28;20499;-41
2023/02/19 07:23:36;;;;;;;;;;;3.70;99.90;;;;;;5043790;28;20044;-41
2023/02/19 07:26:02;;;;;;;15.05;6.03;;;3.70;99.90;;;;;;5043983;28;20323;-41
2023/02/19 07:28:28;;;;;;;18.30;6.57;;;3.80;99.90;;;;;;5049234;28;20476;-42
2023/02/19 07:30:58;;;;;;;10.98;6.03;;;3.80;99.90;;;;;;5047764;28;20024;-44
2023/02/19 07:33:24;;;;;;;14.95;6.10;;;3.80;99.90;;;;;;5048942;28;20032;-43
2023/02/19 07:35:50;;;;;;;11.35;5.90;;;3.90;99.90;;;;;;5047938;28;20108;-42
2023/02/19 07:38:16;;;;;;;12.00;5.15;;;3.90;99.90;;;;;;5048593;28;20033;-45
2023/02/19 07:40:48;;;;;;;10.50;6.00;;;4.00;99.90;;;;;;5047813;28;20029;-41
2023/02/19 07:43:14;;;;;;;11.23;5.90;;;4.00;99.90;;;;;;5047086;28;20032;-42
2023/02/19 07:45:39;;;;;;;15.52;6.45;;;3.90;99.90;;;;;;5047405;28;20031;-41
2023/02/19 07:48:05;;;;;;;16.42;7.10;;;3.90;99.90;;;;;;5048640;28;20379;-42
2023/02/19 07:50:30;;;;;;;10.80;6.45;;;3.90;99.90;;;;;;5048556;28;20025;-42
2023/02/19 07:52:56;;;;;;;14.32;7.38;;;4.00;99.90;;;;;;5063629;28;20021;-43
2023/02/19 07:55:21;;;;;;;16.10;7.63;;;4.10;99.90;;;;;;5047889;28;20467;-42
2023/02/19 07:57:47;;;;;;;15.32;8.02;;;4.10;99.90;;;;;;5047282;28;20032;-45
2023/02/19 08:00:13;;;;;;;14.38;6.97;;;4.20;99.90;;;;;;5048234;28;20076;-42
2023/02/19 08:05:22;;;;;;;13.38;6.82;;;4.20;99.90;;;;;;5047980;28;20448;-41
2023/02/19 08:07:48;;;;;;;12.82;6.10;;;4.30;99.90;;;;;;5047251;28;20116;-42
2023/02/19 08:15:43;;;;;;;15.43;6.72;;;4.40;99.90;;;;;;5048490;28;20040;-43
2023/02/19 08:18:09;;;;;;;11.85;6.68;;;4.40;99.90;;;;;;5063889;28;20025;-42
2023/02/19 08:20:35;;;;;;;12.30;6.22;;;4.40;99.90;;;;;;5048438;28;20033;-43
2023/02/19 08:23:00;;;;;;;12.75;6.20;;;4.50;99.90;;;;;;5047813;28;20028;-42
2023/02/19 08:25:26;;;;;;;9.70;6.28;;;4.40;99.90;;;;;;5048296;28;20029;-42
2023/02/19 08:27:52;;;;;;;11.98;6.53;;;4.50;99.90;;;;;;5048214;28;20183;-43
2023/02/19 08:30:17;;;;;;;12.23;6.32;;;4.60;99.90;;;;;;5048352;28;20147;-42
2023/02/19 08:32:43;;;;;;;12.27;5.93;;;4.60;99.90;;;;;;5046345;28;20686;-43
2023/02/19 08:35:08;;;;;;;13.20;6.40;;;4.70;99.90;;;;;;5047132;28;20499;-43
2023/02/19 08:37:34;;;;;;;10.85;5.57;;;4.80;99.90;;;;;;5047570;28;20033;-42
2023/02/19 08:39:59;;;;;;;11.50;5.63;;;4.90;99.90;;;;;;5061962;28;20392;-44
2023/02/19 08:42:27;;;;;;;9.43;5.88;;;4.90;99.90;;;;;;5045896;28;20480;-42
2023/02/19 08:44:52;;;;;;;9.18;5.80;;;5.00;99.90;;;;;;5047818;28;20087;-43
2023/02/19 08:47:18;;;;;;;9.55;5.22;;;4.90;99.90;;;;;;5063059;28;20033;-43
2023/02/19 08:49:43;;;;;;;9.85;6.30;;;4.90;99.90;;;;;;5047404;28;20048;-41
2023/02/19 08:52:09;;;;;;;7.22;4.97;;;4.90;99.90;;;;;;5046468;28;20021;-41
2023/02/19 08:54:34;;;;;;;10.05;6.38;;;5.00;99.90;;;;;;5045379;28;20170;-41
2023/02/19 08:57:00;;;;;;;10.95;5.72;;;5.10;99.90;;;;;;5046356;28;20486;-41
2023/02/19 08:59:28;;;;;;;13.45;6.35;;;5.20;99.90;;;;;;5061272;28;20036;-41
2023/02/19 09:01:53;;;;;;;11.75;5.65;;;5.20;99.90;;;;;;5046314;28;20108;-42
2023/02/19 09:04:18;;;;;;;8.32;5.35;;;5.40;99.90;;;;;;5047813;28;20128;-42
2023/02/19 09:06:44;;;;;;;10.05;5.88;;;5.40;99.90;;;;;;5049202;28;20474;-42
2023/02/19 09:09:10;;;;;;;10.85;6.25;;;5.40;99.90;;;;;;5050691;28;20027;-42
2023/02/19 09:11:38;;;;;;;11.13;5.70;;;5.50;99.90;;;;;;5051179;28;20388;-41
2023/02/19 09:14:06;;;;;;;9.02;5.13;;;5.50;99.90;;;;;;5050913;28;20029;-40
2023/02/19 09:16:34;;;;;;;10.35;6.05;;;5.50;99.90;;;;;;5051714;28;20017;-41
2023/02/19 09:19:00;;;;;;;8.02;4.65;;;5.50;99.90;;;;;;5066979;28;20032;-41
2023/02/19 09:21:26;;;;;;;10.30;5.78;;;5.70;99.90;;;;;;5050875;28;20067;-41
2023/02/19 09:23:51;;;;;;;9.55;5.25;;;5.90;99.90;;;;;;5050475;28;20365;-41
2023/02/19 09:26:17;;;;;;;8.98;5.43;;;5.80;99.90;;;;;;5051352;28;20468;-41
2023/02/19 09:28:42;;;;;;;8.60;5.07;;;5.90;99.90;;;;;;5050901;28;20024;-42
2023/02/19 09:31:10;;;;;;;14.07;5.13;;;5.90;99.90;;;;;;5051388;28;20025;-42
2023/02/19 09:33:36;;;;;;;11.32;4.90;;;5.90;99.90;;;;;;5049825;28;20424;-40
2023/02/19 09:36:03;;;;;;;8.32;5.28;;;5.90;99.90;;;;;;5051184;28;20026;-42
2023/02/19 09:38:29;;;;;;;7.10;4.88;;;5.80;99.90;;;;;;5051147;28;20524;-42
2023/02/19 09:41:04;;;;;;;8.98;4.95;;;6.00;99.90;;;;;;5051104;28;20392;-44
2023/02/19 09:43:30;;;;;;;11.73;4.75;;;6.40;99.90;;;;;;5050605;28;20110;-40
2023/02/19 09:46:22;;;;;;;6.93;3.92;;;7.30;99.90;;;;;;5051129;28;20472;-42
2023/02/19 09:48:47;;;;;;;8.65;3.72;;;7.90;99.90;;;;;;5027510;28;20045;-42
2023/02/19 09:51:14;;;;;;;5.35;3.70;;;7.70;99.90;;;;;;5051009;28;20033;-41
2023/02/19 09:53:46;;;;;;;7.60;3.67;;;8.00;99.90;;;;;;5050548;28;20036;-40
2023/02/19 09:56:11;;;;;;;5.40;3.40;;;8.40;99.90;;;;;;5051090;28;20133;-42
2023/02/19 09:58:47;;;;;;;5.93;2.95;;;9.80;99.90;;;;;;5050546;28;20132;-42
2023/02/19 10:01:12;;;;;;;8.13;3.45;;;10.60;99.90;;;;;;5050886;28;20021;-41
2023/02/19 10:03:42;;;;;;;7.43;2.90;;;10.20;99.90;;;;;;5050616;28;20024;-40
2023/02/19 10:06:22;;;;;;;6.95;2.70;;;9.60;99.90;;;;;;5065989;28;20400;-41
2023/02/19 10:08:50;;;;;;;3.78;2.50;;;9.10;99.90;;;;;;5050743;28;20024;-41
2023/02/19 10:11:16;;;;;;;4.85;2.78;;;10.40;99.90;;;;;;5050506;28;20238;-42
2023/02/19 10:13:45;;;;;;;4.68;2.40;;;11.90;99.90;;;;;;5050286;28;20009;-41
2023/02/19 10:16:16;;;;;;;7.78;3.13;;;12.20;99.90;;;;;;5050581;28;20021;-43
2023/02/19 10:18:43;;;;;;;4.85;2.20;;;13.60;99.90;;;;;;5050126;28;20025;-45
2023/02/19 10:21:27;;;;;;;4.78;2.05;;;14.70;99.90;;;;;;5050293;28;20049;-42
2023/02/19 10:23:56;;;;;;;6.32;1.98;;;16.00;96.50;;;;;;5049162;28;20017;-45
2023/02/19 10:26:22;;;;;;;2.92;1.90;;;16.40;95.10;;;;;;5050231;28;20023;-43
2023/02/19 10:28:48;;;;;;;6.95;2.08;;;17.40;92.30;;;;;;5049269;28;20067;-43
2023/02/19 10:31:22;;;;;;;4.25;2.05;;;17.60;90.10;;;;;;5050556;28;20056;-42
2023/02/19 10:33:57;;;;;;;4.55;1.80;;;17.40;90.60;;;;;;5065811;28;20610;-42
2023/02/19 10:36:34;;;;;;;7.55;2.05;;;17.20;90.50;;;;;;5050768;28;20036;-42
2023/02/19 10:39:01;;;;;;;4.70;1.90;;;17.40;87.70;;;;;;5049132;28;20472;-42
2023/02/19 10:41:28;;;;;;;7.03;2.15;;;15.70;88.10;;;;;;5049589;28;20055;-42
2023/02/19 10:44:03;;;;;;;6.00;2.05;;;14.30;89.50;;;;;;5050241;28;20024;-41
2023/02/19 10:46:33;;;;;;;8.23;1.98;;;14.30;92.40;;;;;;5050014;28;20480;-43
2023/02/19 10:49:26;;;;;;;4.03;1.70;;;15.00;91.50;;;;;;5049711;28;20025;-44
2023/02/19 10:51:54;;;;;;;5.90;2.05;;;16.30;89.60;;;;;;5049495;28;20021;-45
2023/02/19 10:54:25;;;;;;;6.13;2.08;;;16.70;84.90;;;;;;5065256;28;20269;-42
2023/02/19 10:56:51;;;;;;;5.80;1.90;;;17.20;84.00;;;;;;5049920;28;20035;-43
2023/02/19 10:59:24;;;;;;;6.80;2.22;;;17.30;81.00;;;;;;5049529;28;20025;-42
2023/02/19 11:01:56;;;;;;;5.80;1.60;;;18.40;81.10;;;;;;5049303;28;20036;-46
2023/02/19 11:04:23;;;;;;;4.32;2.17;;;18.90;76.60;;;;;;5049660;28;20036;-42
2023/02/19 11:06:49;;;;;;;6.45;2.17;;;18.80;75.80;;;;;;5049725;28;20047;-44
2023/02/19 11:09:35;;;;;;;7.53;2.45;;;19.50;71.00;;;;;;5049295;28;20484;-42
2023/02/19 11:12:03;;;;;;;7.38;2.45;;;19.60;69.90;;;;;;5049183;28;20388;-43
2023/02/19 11:14:30;;;;;;;5.88;2.25;;;19.30;67.50;;;;;;5049968;28;20166;-44
2023/02/19 11:16:58;;;;;;;8.43;2.55;;;19.30;70.80;;;;;;5049728;28;20021;-44
2023/02/19 11:19:36;;;;;;;3.90;2.08;;;19.50;68.40;;;;;;5064465;28;20055;-44
2023/02/19 11:22:30;;;;;;;6.47;2.05;;;19.70;69.70;;;;;;5048675;28;20025;-43
2023/02/19 11:25:24;;;;;;;4.63;2.08;;;20.00;68.70;;;;;;5048259;28;20070;-44
2023/02/19 11:28:06;;;;;;;6.72;2.40;;;20.40;66.10;;;;;;5048902;28;20277;-44
2023/02/19 11:30:35;;;;;;;7.32;2.50;;;19.00;67.10;;;;;;5047099;28;20025;-43
2023/02/19 11:33:15;;;;;;;6.13;2.20;;;17.40;67.90;;;;;;5049025;28;20024;-42
2023/02/19 11:35:45;;;;;;;6.95;3.05;;;16.80;70.20;;;;;;5049063;28;20075;-45
2023/02/19 11:38:12;;;;;;;6.03;2.25;;;16.10;70.00;;;;;;5048936;28;20111;-42
2023/02/19 11:41:22;;;;;;;4.47;2.50;;;15.60;72.00;;;;;;5049049;28;20209;-42
2023/02/19 11:44:03;;;;;;;3.55;1.80;;;15.70;72.60;;;;;;5048861;28;20590;-42
2023/02/19 11:46:31;;;;;;;;;;;16.60;74.20;;;;;;5049654;28;20028;-45
2023/02/19 11:49:06;;;;;;;6.00;2.45;;;16.70;75.20;;;;;;5048628;28;20016;-44
2023/02/19 11:51:50;;;;;;;4.97;2.20;;;17.50;71.70;;;;;;5048441;28;20056;-42
2023/02/19 11:54:21;;;;;;;3.70;2.00;;;16.90;71.40;;;;;;5064103;28;20021;-42
2023/02/19 11:57:02;;;;;;;5.88;1.83;;;16.70;72.80;;;;;;5048768;28;20029;-43
2023/02/19 11:59:58;;;;;;;5.30;1.92;;;16.80;70.00;;;;;;5048285;28;20040;-43
2023/02/19 12:02:52;;;;;;;5.32;1.92;;;17.00;72.20;;;;;;5039673;28;20051;-46
2023/02/19 12:05:34;;;;;;;5.03;2.00;;;17.50;70.10;;;;;;5048589;28;20039;-45
2023/02/19 12:08:15;;;;;;;5.55;2.22;;;18.20;68.30;;;;;;5048345;28;20033;-44
2023/02/19 12:10:53;;;;;;;4.38;1.80;;;16.80;66.70;;;;;;5063720;28;20041;-42
2023/02/19 12:13:33;;;;;;;4.85;1.85;;;15.20;70.30;;;;;;5048113;28;20025;-44
2023/02/19 12:16:24;;;;;;;5.13;2.22;;;14.00;75.60;;;;;;5048472;28;20028;-42
2023/02/19 12:19:18;;;;;;;4.38;2.15;;;13.60;77.70;;;;;;5048350;28;20036;-42
2023/02/19 12:22:12;;;;;;;5.30;1.70;;;14.50;77.90;;;;;;5047870;28;20119;-43
2023/02/19 12:25:16;;;;;;;6.45;2.78;;;14.00;74.30;;;;;;5046003;28;20032;-42
2023/02/19 12:28:00;;;;;;;3.88;1.70;;;14.60;77.70;;;;;;5048496;28;20078;-41
2023/02/19 12:30:42;;;;;;;6.63;1.92;;;15.30;75.80;;;;;;5048991;28;20025;-43
2023/02/19 12:33:38;;;;;;;6.88;2.03;;;15.80;73.50;;;;;;5063373;28;20032;-41
2023/02/19 12:36:28;;;;;;;4.25;1.50;;;15.60;74.50;;;;;;5048254;28;20082;-42
2023/02/19 12:39:23;;;;;;;4.95;1.52;;;15.50;72.70;;;;;;5063483;28;20040;-43
2023/02/19 12:42:03;;;;;;;3.88;1.38;;;14.30;71.90;;;;;;5049669;28;20025;-41
2023/02/19 12:44:50;;;;;;;6.82;1.73;;;14.00;76.10;;;;;;5052494;28;20483;-41
2023/02/19 12:47:20;;;;;;;7.43;1.88;;;13.90;74.40;;;;;;5052180;28;20075;-40
2023/02/19 12:50:07;;;;;;;4.25;1.50;;;14.00;75.30;;;;;;5052550;28;20468;-41
2023/02/19 12:52:39;;;;;;;5.00;1.38;;;13.70;77.20;;;;;;5052098;28;20107;-41
2023/02/19 12:55:21;;;;;;;5.47;1.42;;;13.60;78.30;;;;;;5052326;28;20017;-41
2023/02/19 12:57:49;;;;;;;4.40;1.40;;;13.40;80.10;;;;;;5052078;28;20025;-41
2023/02/19 13:00:35;;;;;;;5.40;1.60;;;13.30;79.10;;;;;;5050924;28;20090;-40
2023/02/19 13:03:27;;;;;;;5.75;1.73;;;13.10;76.20;;;;;;5051102;28;20040;-41
2023/02/19 13:06:25;;;;;;;3.03;1.33;;;12.90;80.90;;;;;;5052064;28;20112;-41
2023/02/19 13:08:57;;;;;;;4.25;1.38;;;13.00;82.60;;;;;;5051714;28;20021;-41
2023/02/19 13:11:31;;;;;;;4.93;1.60;;;13.20;81.70;;;;;;5051803;28;20024;-41
2023/02/19 13:14:03;;;;;;;4.75;1.23;;;13.40;79.60;;;;;;5067511;28;20468;-41
2023/02/19 13:16:32;;;;;;;5.07;1.38;;;13.50;78.60;;;;;;5052186;28;20033;-42
2023/02/19 13:19:02;;;;;;;5.97;1.50;;;13.10;79.90;;;;;;5052086;28;20020;-43
2023/02/19 13:24:34;;;;;;;8.70;1.60;;;11.50;83.10;;;;;;5051058;28;19911;-41
2023/02/19 13:27:21;;;;;;;3.50;1.20;;;11.20;83.40;;;;;;5052113;28;20040;-41
2023/02/19 13:30:02;;;;;;;4.63;1.40;;;11.30;85.20;;;;;;5049753;28;20530;-42
2023/02/19 13:32:50;;;;;;;5.07;1.75;;;11.50;83.60;;;;;;5051447;28;20385;-41
2023/02/19 13:35:34;;;;;;;5.50;1.75;;;11.80;82.10;;;;;;5050378;28;20026;-42
2023/02/19 13:38:01;;;;;;;5.30;1.55;;;11.50;80.60;;;;;;5051802;28;20059;-42
2023/02/19 13:40:30;;;;;;;5.95;2.10;;;11.30;80.90;;;;;;5051362;28;20054;-42